Terminal Aerodrome Forecast
Issued by NWS Green Bay, WI

Home | Current Version | Previous Version | Graphics & Text | Print | Product List | Glossary On
Versions: 1 2 3 4 5 6 7 8 9 10 11 12 13 14 15 16 17 18 19 20 21 22 23 24 25 26 27 28 29 30 31 32 33 34 35 36 37 38 39 40 41 42 43 44 45 46 47 48 49 50
000
FTUS43 KGRB 241800 AAA
TAFGRB
TAF AMD
KGRB 241802Z 2418/2518 01007KT 2SM -DZ BR OVC005
      TEMPO 2419/2420 3/4SM BR OVC003
     FM242000 01010G15KT 4SM BR OVC012
     FM242200 36012G20KT 6SM -SN SCT012 OVC018
     FM250100 32010G18KT P6SM SCT015 OVC020
     FM250600 27009G16KT P6SM OVC020
     FM251400 23009KT P6SM OVC025=

USA.gov is the U.S. government's official web portal to all federal, state and local government web resources and services.